Terminal Aerodrome Forecast
Issued by NWS Bismarck, ND

Home | Current Version | Previous Version | Text Only | Print | Product List | Glossary Off
Versions: 1 2 3 4 5 6 7 8 9 10 11 12 13 14 15 16 17

000
FTUS43 KBIS 221700
TAFBIS
TAF
KBIS 221735Z 2218/2318 12022G28KT P6SM SCT250
     FM230700 12022G27KT P6SM -SHRA OVC035
     FM231200 13019G25KT P6SM VCSH OVC025=

USA.gov is the U.S. government's official web portal to all federal, state and local government web resources and services.